メインページ
METAR-TAF:

METAR-TAF

空港 :

プルコヴォ空港

サンクトペテルブルク, ロシア

緯度: 59-58N, 経度: 030-18E, 海抜: 4m

現時点の気象観測

当レポートは32分前の10:00(UTC)に作成
南西の風 10kt
気温 20°C
湿度 49%
気圧 1007 hPa
視程10km以上
高度2800ftの千切れ雲あり

METAR: ULLI 191000Z 22005MPS 9999 BKN028 20/09 Q1007 R88/090060 NOSIG

時間: 13:32 (10:32 UTC)

予報

当レポートは2時間35分前の07:57(UTC)に作成
予報は19日の 09時(UTC)から 20日の 09時(UTC)まで有効
南西の風 12kt、最大23ktの突風を伴う
視程10km以上
高度2500ftの千切れ雲あり
19日の 09時(UTC)から 19日の 17時(UTC)まで一時的に
西の風 17kt、最大27ktの突風を伴う
視程: 3100m
高度1100ftの千切れ雲あり
高度2000ftの千切れ雲あり, 積乱雲.
弱いにわか雨
19日の 17時(UTC)から 19日の 19時(UTC)まで徐々に
西の風 14kt、最大25ktの突風を伴う
19日の 18時(UTC)から 19日の 24時(UTC)まで一時的に
視程: 3100m
高度1100ftの千切れ雲あり
高度2000ftの千切れ雲あり, 積乱雲.
弱いにわか雨
20日の 06時(UTC)から 20日の 09時(UTC)まで一時的に
西の風 17kt、最大27ktの突風を伴う

TAF: ULLI 190757Z 1909/2009 22006G12MPS 9999 BKN025 TEMPO 1909/1917 26009G14MPS 3100 -SHRA BKN011 BKN020CB BECMG 1917/1919 26007G13MPS TEMPO 1918/1924 3100 -SHRA BKN011 BKN020CB TEMPO 2006/2009 27009G14MPS

4,000以上の空港の気象観測と天気予報(METAR報とTAF報)

利用可能な観測所は地図上に黄色い丸と赤い丸で示す。

丸の上にカーソルを重ねると観測所名を参照できる。

次にクリックすると気象観測と天気予報を参照できる。

マップの切り替え:黒色「×」印の緑ボタンをクリックして拡大、「-」印の緑ボタンをクリックして縮小、緑色の三角印をクリックして隣りの地図に切り替え


METAR-TAF: